Time;durP1;ratioP1;P1;durP2;ratioP2;P2;SDS_P1;SDS_P2;PMS_P1;PMS_P2;Temp;Humidity;BMP_temperature;BMP_pressure;BME280_temperature;BME280_humidity;BME280_pressure;Samples;Min_cycle;Max_cycle;Signal;HPM_P1;HPM_P2
2023/04/16 00:02:57;;;;;;;24.88;22.95;;;;;;;7.44;100.00;99710.59;10495749;28;20084;-72
2023/04/16 00:08:00;;;;;;;25.23;23.30;;;;;;;7.22;100.00;99715.47;10496841;28;20207;-74
2023/04/16 00:13:05;;;;;;;25.83;24.02;;;;;;;7.14;100.00;99718.25;10477873;28;20040;-74
2023/04/16 00:18:10;;;;;;;28.95;26.50;;;;;;;6.86;100.00;99720.59;10477460;28;20048;-73
2023/04/16 00:23:12;;;;;;;25.65;23.95;;;;;;;7.21;100.00;99718.97;10496057;28;20040;-73
2023/04/16 00:28:13;;;;;;;24.77;22.73;;;;;;;6.90;100.00;99724.03;10477958;28;20110;-73
2023/04/16 00:33:15;;;;;;;23.35;21.60;;;;;;;6.71;100.00;99732.25;10495426;28;20044;-73
2023/04/16 00:38:17;;;;;;;22.95;21.40;;;;;;;6.78;100.00;99733.00;10476622;28;20117;-73
2023/04/16 00:43:24;;;;;;;21.38;19.88;;;;;;;6.60;100.00;99744.69;10495374;28;20045;-74
2023/04/16 00:48:26;;;;;;;;;;;;;;;6.52;100.00;99743.97;10476395;28;20449;-72
2023/04/16 00:53:29;;;;;;;22.38;20.88;;;;;;;6.56;100.00;99735.19;10475348;28;19947;-73
2023/04/16 00:58:33;;;;;;;22.88;21.27;;;;;;;6.45;100.00;99742.38;10475015;28;20053;-73
2023/04/16 01:03:41;;;;;;;24.67;22.65;;;;;;;6.56;100.00;99738.66;10474737;28;20406;-73
2023/04/16 01:08:45;;;;;;;23.00;21.40;;;;;;;6.45;100.00;99743.22;10457747;28;20531;-73
2023/04/16 01:13:47;;;;;;;21.65;20.05;;;;;;;6.22;100.00;99745.41;10474987;28;20409;-73
2023/04/16 01:18:49;;;;;;;19.45;18.05;;;;;;;6.13;100.00;99743.84;10493026;28;20036;-73
2023/04/16 01:23:53;;;;;;;24.20;22.30;;;;;;;6.17;100.00;99736.81;10492547;28;20124;-73
2023/04/16 01:28:55;;;;;;;23.52;21.77;;;;;;;6.32;100.00;99740.00;10473983;28;20450;-73
2023/04/16 01:33:57;;;;;;;22.95;21.27;;;;;;;6.12;100.00;99747.34;10492079;28;20044;-73
2023/04/16 01:38:59;;;;;;;21.65;20.05;;;;;;;6.06;100.00;99748.31;10456954;28;20147;-74
2023/04/16 01:44:01;;;;;;;20.08;18.67;;;;;;;6.10;100.00;99756.06;10491713;28;20118;-74
2023/04/16 01:49:04;;;;;;;24.55;22.65;;;;;;;6.10;100.00;99753.47;10490717;28;20041;-73
2023/04/16 01:54:07;;;;;;;23.33;21.35;;;;;;;6.44;100.00;99751.09;10472442;28;20052;-74
2023/04/16 01:59:08;;;;;;;23.05;21.35;;;;;;;6.07;100.00;99751.78;10490538;28;20041;-74
2023/04/16 02:04:14;;;;;;;23.10;21.10;;;;;;;5.97;100.00;99751.06;10477871;28;20075;-73
2023/04/16 02:09:16;;;;;;;24.42;22.83;;;;;;;6.02;100.00;99751.88;10481577;28;20049;-73
2023/04/16 02:14:24;;;;;;;22.23;20.73;;;;;;;5.82;100.00;99759.13;10481945;28;20066;-73
2023/04/16 02:19:26;;;;;;;21.38;19.65;;;;;;;5.69;100.00;99765.44;10499452;28;20144;-74
2023/04/16 02:24:28;;;;;;;24.25;22.45;;;;;;;5.86;100.00;99757.34;10481188;28;20454;-74
2023/04/16 02:29:32;;;;;;;25.15;23.23;;;;;;;5.74;100.00;99758.41;10463679;28;20041;-74
2023/04/16 02:34:44;;;;;;;23.67;21.65;;;;;;;5.30;100.00;99770.38;10498213;28;20064;-73
2023/04/16 02:39:48;;;;;;;23.42;21.73;;;;;;;5.13;100.00;99770.63;10464186;28;20110;-73
2023/04/16 02:44:50;;;;;;;24.50;22.70;;;;;;;5.06;100.00;99788.09;10498009;28;20051;-73
2023/04/16 02:49:52;;;;;;;23.65;21.73;;;;;;;5.09;100.00;99788.91;10496806;28;20037;-73
2023/04/16 02:54:53;;;;;;;23.17;21.50;;;;;;;5.27;100.00;99781.72;10478691;28;20064;-73
2023/04/16 02:59:55;;;;;;;24.17;22.48;;;;;;;5.34;100.00;99782.47;10478455;28;20075;-74
2023/04/16 03:04:57;;;;;;;23.60;21.90;;;;;;;5.07;100.00;99792.41;10478614;28;20053;-72
2023/04/16 03:09:59;;;;;;;23.77;22.08;;;;;;;5.15;100.00;99802.75;10478934;28;20079;-72
2023/04/16 03:15:01;;;;;;;24.85;22.77;;;;;;;5.33;100.00;99799.00;10496183;28;20089;-73
2023/04/16 03:20:04;;;;;;;23.98;21.95;;;;;;;5.15;100.00;99807.94;10478281;28;20040;-73
2023/04/16 03:25:07;;;;;;;24.73;22.65;;;;;;;5.13;100.00;99811.44;10496669;28;20037;-73
2023/04/16 03:30:10;;;;;;;23.08;21.38;;;;;;;5.06;100.00;99827.16;10497246;28;20040;-73
2023/04/16 03:35:12;;;;;;;23.95;22.17;;;;;;;5.29;100.00;99826.00;10478852;28;20067;-73
2023/04/16 03:40:14;;;;;;;24.90;22.45;;;;;;;5.46;100.00;99828.38;10496126;28;20112;-73
2023/04/16 03:45:16;;;;;;;22.67;21.10;;;;;;;5.30;100.00;99831.19;10477143;28;20528;-73
2023/04/16 03:50:20;;;;;;;22.80;21.08;;;;;;;5.07;100.00;99833.22;10477034;28;20041;-74
2023/04/16 03:55:22;;;;;;;24.15;22.15;;;;;;;5.13;100.00;99837.50;10494687;28;20555;-73
2023/04/16 04:00:25;;;;;;;22.85;21.25;;;;;;;5.00;100.00;99845.50;10494851;28;20048;-73
2023/04/16 04:05:46;;;;;;;21.90;20.10;;;;;;;4.59;100.00;99850.28;10477235;28;20115;-72
2023/04/16 04:10:52;;;;;;;23.60;21.90;;;;;;;4.60;100.00;99855.47;10476619;28;20048;-73
2023/04/16 04:15:56;;;;;;;24.70;21.52;;;;;;;4.50;100.00;99852.09;10476363;28;20045;-73
2023/04/16 04:20:58;;;;;;;24.25;22.33;;;;;;;4.38;100.00;99859.16;10476093;28;20054;-74
2023/04/16 04:26:04;;;;;;;24.45;22.48;;;;;;;4.34;100.00;99863.56;10475169;28;20056;-73
2023/04/16 04:31:06;;;;;;;25.73;23.67;;;;;;;4.36;100.00;99864.38;10476383;28;20506;-73
2023/04/16 04:36:08;;;;;;;26.40;24.05;;;;;;;4.45;100.00;99866.03;10476506;28;20051;-73
2023/04/16 04:41:10;;;;;;;23.80;21.80;;;;;;;4.57;100.00;99870.28;10452615;28;20049;-77
2023/04/16 04:46:13;;;;;;;21.98;20.27;;;;;;;4.75;100.00;99865.75;10476991;28;20048;-77
2023/04/16 04:51:15;;;;;;;23.95;22.05;;;;;;;4.60;100.00;99870.22;10475978;28;20067;-77
2023/04/16 04:56:20;;;;;;;24.50;22.27;;;;;;;4.83;100.00;99876.06;10479493;28;20052;-77
2023/04/16 05:01:22;;;;;;;24.55;22.75;;;;;;;5.27;100.00;99877.28;10477973;28;20053;-77
2023/04/16 05:06:24;;;;;;;24.38;22.77;;;;;;;5.43;100.00;99880.53;10474824;28;20059;-77
2023/04/16 05:11:29;;;;;;;24.20;22.00;;;;;;;5.19;100.00;99887.81;10494629;28;20040;-78
2023/04/16 05:16:31;;;;;;;23.17;21.58;;;;;;;5.12;100.00;99888.75;10476761;28;20075;-77
2023/04/16 05:21:33;;;;;;;23.85;21.98;;;;;;;5.07;100.00;99899.22;10476478;28;20052;-77
2023/04/16 05:26:35;;;;;;;24.60;22.65;;;;;;;5.07;100.00;99901.84;10494813;28;20037;-76
2023/04/16 05:31:37;;;;;;;25.77;23.90;;;;;;;5.29;100.00;99902.44;10476416;28;20254;-76
2023/04/16 05:36:39;;;;;;;21.80;19.95;;;;;;;5.28;100.00;99907.69;10491780;28;20123;-76
2023/04/16 05:41:41;;;;;;;22.63;20.67;;;;;;;5.33;100.00;99913.69;10493426;28;20106;-76
2023/04/16 05:46:43;;;;;;;21.95;20.35;;;;;;;5.43;100.00;99923.13;10493234;28;20048;-76
2023/04/16 05:51:45;;;;;;;22.30;20.80;;;;;;;5.65;100.00;99933.28;10494074;28;20082;-75
2023/04/16 05:56:47;;;;;;;22.08;20.17;;;;;;;5.55;100.00;99936.00;10477083;28;20079;-75
2023/04/16 06:01:49;;;;;;;21.38;19.50;;;;;;;5.69;100.00;99938.41;10494064;28;20040;-75
2023/04/16 06:06:51;;;;;;;17.73;16.52;;;;;;;6.27;100.00;99942.81;10493648;28;20047;-75
2023/04/16 06:11:54;;;;;;;17.95;16.75;;;;;;;6.20;100.00;99956.00;10474804;28;20495;-75
2023/04/16 06:16:56;;;;;;;18.65;17.30;;;;;;;6.11;100.00;99950.91;10460500;28;20048;-74
2023/04/16 06:21:58;;;;;;;16.30;15.20;;;;;;;6.43;100.00;99956.50;10491769;28;20045;-74
2023/04/16 06:27:01;;;;;;;16.05;14.95;;;;;;;6.41;100.00;99965.25;10480920;28;20127;-75
2023/04/16 06:32:04;;;;;;;17.20;16.08;;;;;;;6.47;100.00;99967.78;10495284;28;20071;-75
2023/04/16 06:37:06;;;;;;;17.95;16.70;;;;;;;6.68;100.00;99974.38;10457711;28;20547;-75
2023/04/16 06:42:11;;;;;;;15.80;14.80;;;;;;;6.79;100.00;99973.31;10473327;28;20041;-74
2023/04/16 06:47:13;;;;;;;15.07;14.10;;;;;;;6.98;100.00;99973.84;10494261;28;20049;-75
2023/04/16 06:52:15;;;;;;;16.67;15.32;;;;;;;7.19;100.00;99969.97;10482749;28;20056;-75
2023/04/16 06:57:17;;;;;;;16.55;15.45;;;;;;;7.16;100.00;99969.16;10501026;28;20052;-76
2023/04/16 07:02:19;;;;;;;16.77;15.57;;;;;;;7.17;100.00;99974.38;10501040;28;20107;-75
2023/04/16 07:07:21;;;;;;;17.50;16.30;;;;;;;7.14;100.00;99978.78;10481263;28;20050;-77
2023/04/16 07:12:26;;;;;;;16.50;15.13;;;;;;;7.39;100.00;99973.94;10501924;28;20068;-76
2023/04/16 07:17:30;;;;;;;14.48;13.57;;;;;;;7.70;100.00;99982.03;10486050;28;20186;-75
2023/04/16 07:22:32;;;;;;;15.20;14.23;;;;;;;7.92;99.10;99985.91;10505579;28;20040;-75
2023/04/16 07:27:35;;;;;;;16.95;15.80;;;;;;;8.01;100.00;99980.50;10485060;28;20396;-76
2023/04/16 07:32:37;;;;;;;15.07;14.13;;;;;;;8.32;100.00;99982.41;10498075;28;20445;-76
2023/04/16 07:37:40;;;;;;;15.48;14.38;;;;;;;8.46;98.71;99990.84;10501803;28;20066;-77
2023/04/16 07:42:42;;;;;;;15.82;14.82;;;;;;;9.15;95.38;99993.47;10503083;28;20528;-75
2023/04/16 07:47:46;;;;;;;15.05;13.88;;;;;;;9.10;93.45;99997.06;10483804;28;20066;-75
2023/04/16 07:52:48;;;;;;;15.60;14.43;;;;;;;9.27;95.02;99999.25;10500451;28;20052;-76
2023/04/16 07:57:51;;;;;;;16.58;15.57;;;;;;;9.26;93.85;100009.81;10478788;28;20135;-77
2023/04/16 08:02:53;;;;;;;16.30;15.20;;;;;;;9.40;93.17;100012.91;10494270;28;20114;-75
2023/04/16 08:07:55;;;;;;;15.30;14.40;;;;;;;9.86;91.11;100014.22;10477339;28;20041;-76
2023/04/16 08:12:59;;;;;;;14.32;13.38;;;;;;;10.00;88.68;100008.56;10495078;28;20051;-75
2023/04/16 08:18:01;;;;;;;15.65;14.55;;;;;;;9.98;90.35;100010.38;10494663;28;20102;-75
2023/04/16 08:23:03;;;;;;;16.10;15.05;;;;;;;10.06;90.90;100016.28;10514437;28;20078;-76
2023/04/16 08:28:05;;;;;;;14.77;13.88;;;;;;;10.22;91.21;100024.53;10519170;28;20051;-76
2023/04/16 08:33:07;;;;;;;17.10;15.95;;;;;;;10.44;89.61;100023.00;10537085;28;20128;-76
2023/04/16 08:38:09;;;;;;;16.27;15.25;;;;;;;10.88;90.32;100040.88;10536191;28;20040;-75
2023/04/16 08:43:13;;;;;;;14.30;13.32;;;;;;;11.39;84.69;100043.53;10535473;28;20044;-77
2023/04/16 08:48:20;;;;;;;16.52;15.52;;;;;;;11.68;85.92;100045.13;10536931;28;20055;-76
2023/04/16 08:53:33;;;;;;;15.90;14.77;;;;;;;12.12;82.83;100051.41;10519211;28;20563;-76
2023/04/16 08:58:36;;;;;;;15.63;14.70;;;;;;;12.30;81.95;100051.63;10535904;28;20047;-75
2023/04/16 09:03:40;;;;;;;16.25;15.25;;;;;;;12.66;77.38;100046.72;10519557;28;20106;-76
2023/04/16 09:08:47;;;;;;;14.15;13.30;;;;;;;12.37;79.52;100053.97;10537848;28;20040;-77
2023/04/16 09:13:49;;;;;;;15.60;14.50;;;;;;;12.07;80.84;100045.44;10517214;28;20052;-76
2023/04/16 09:18:51;;;;;;;12.43;11.52;;;;;;;12.33;79.58;100059.41;10536925;28;20074;-76
2023/04/16 09:23:53;;;;;;;10.93;10.13;;;;;;;12.01;79.69;100055.38;10536298;28;20067;-77
2023/04/16 09:28:55;;;;;;;12.90;12.00;;;;;;;12.22;79.81;100065.13;10536065;28;20071;-77
2023/04/16 09:34:05;;;;;;;12.70;11.80;;;;;;;12.54;81.78;100060.38;10536007;28;20048;-77
2023/04/16 09:39:18;;;;;;;10.25;9.65;;;;;;;12.76;76.39;100068.28;10535190;28;20032;-77
2023/04/16 09:44:34;;;;;;;10.93;10.18;;;;;;;12.93;75.74;100068.47;10518193;28;20044;-76
2023/04/16 09:49:42;;;;;;;10.80;10.00;;;;;;;12.74;75.66;100078.03;10535712;28;20420;-75
2023/04/16 09:54:52;;;;;;;11.43;10.68;;;;;;;12.79;76.81;100081.34;10533570;28;20044;-77
2023/04/16 10:00:01;;;;;;;6.00;5.53;;;;;;;12.98;74.16;100077.06;10533471;28;20040;-77
2023/04/16 10:05:05;;;;;;;7.00;6.50;;;;;;;12.72;74.88;100079.88;10533603;28;20050;-76
2023/04/16 10:10:08;;;;;;;7.18;6.57;;;;;;;13.02;74.08;100078.66;10532887;28;20086;-75
2023/04/16 10:15:10;;;;;;;9.02;8.40;;;;;;;12.75;72.92;100085.00;10515613;28;20067;-75
2023/04/16 10:20:14;;;;;;;6.13;5.68;;;;;;;12.97;72.49;100090.28;10518453;28;20047;-75
2023/04/16 10:25:19;;;;;;;8.93;8.27;;;;;;;13.22;71.23;100095.41;10525758;28;20145;-75
2023/04/16 10:30:22;;;;;;;5.45;5.15;;;;;;;13.55;71.17;100093.19;10528174;28;20494;-75
2023/04/16 10:35:24;;;;;;;7.40;6.90;;;;;;;13.89;70.58;100096.03;10482455;28;20502;-75
2023/04/16 10:40:26;;;;;;;5.00;4.70;;;;;;;13.47;68.48;100101.44;10499162;28;20052;-75
2023/04/16 10:45:37;;;;;;;4.95;4.60;;;;;;;13.67;68.22;100089.13;10490602;28;20075;-75
2023/04/16 10:50:40;;;;;;;4.50;4.20;;;;;;;13.73;70.52;100095.03;10498303;28;20084;-75
2023/04/16 10:56:15;;;;;;;3.88;3.47;;;;;;;13.44;68.74;100104.19;10499161;28;20076;-75
2023/04/16 11:01:17;;;;;;;4.75;4.35;;;;;;;13.21;68.45;100105.13;10498644;28;20043;-74
2023/04/16 11:06:26;;;;;;;5.20;4.80;;;;;;;13.26;69.01;100097.91;10500976;28;20119;-75
2023/04/16 11:11:38;;;;;;;5.20;4.90;;;;;;;13.35;71.00;100104.59;10496298;28;20040;-75
2023/04/16 11:16:40;;;;;;;5.00;4.70;;;;;;;13.84;65.42;100103.31;10473514;28;20057;-75
2023/04/16 11:21:44;;;;;;;5.47;3.53;;;;;;;14.09;62.29;100095.16;10478088;28;20081;-74
2023/04/16 11:26:50;;;;;;;4.05;3.70;;;;;;;14.26;61.80;100106.78;10508392;22;20037;-70
2023/04/16 11:31:53;;;;;;;3.03;2.83;;;;;;;14.12;62.54;100104.72;10483387;28;20136;-71
2023/04/16 11:36:55;;;;;;;4.65;2.67;;;;;;;14.32;61.38;100106.47;10535137;28;20077;-71
2023/04/16 11:41:57;;;;;;;1.88;1.77;;;;;;;13.84;59.92;100105.09;10535807;28;20113;-72
2023/04/16 11:47:05;;;;;;;2.28;2.17;;;;;;;14.04;58.89;100101.59;10535640;28;20048;-71
2023/04/16 11:52:07;;;;;;;2.40;2.20;;;;;;;14.78;57.81;100104.34;10534871;28;20121;-71
2023/04/16 11:57:09;;;;;;;2.63;2.42;;;;;;;14.12;60.02;100102.09;10534190;28;20044;-69
2023/04/16 12:02:11;;;;;;;2.15;2.00;;;;;;;14.78;57.21;100096.41;10515939;28;20166;-71
2023/04/16 12:07:13;;;;;;;2.90;2.28;;;;;;;15.00;54.81;100091.78;10534737;28;20047;-70
2023/04/16 12:12:32;;;;;;;2.10;2.00;;;;;;;14.77;51.29;100100.84;10533943;28;20040;-71
2023/04/16 12:17:34;;;;;;;1.42;1.33;;;;;;;14.44;52.74;100094.47;10534491;28;20150;-70
2023/04/16 12:22:38;;;;;;;1.85;1.30;;;;;;;14.76;51.91;100099.13;10534056;28;20036;-71
2023/04/16 12:27:45;;;;;;;2.58;1.75;;;;;;;15.14;51.52;100096.41;10515589;28;20113;-71
2023/04/16 12:32:49;;;;;;;2.70;2.50;;;;;;;14.87;52.83;100098.59;10515282;28;20044;-71
2023/04/16 12:37:51;;;;;;;2.53;2.33;;;;;;;14.77;54.44;100097.34;10514768;28;20146;-71
2023/04/16 12:42:53;;;;;;;2.80;2.60;;;;;;;15.20;52.87;100098.75;10515093;28;20148;-71
2023/04/16 12:47:56;;;;;;;2.20;2.00;;;;;;;15.36;50.43;100093.53;10532009;28;20044;-71
2023/04/16 12:52:58;;;;;;;4.15;3.85;;;;;;;15.44;53.25;100094.00;10531516;28;20063;-71
2023/04/16 12:57:59;;;;;;;3.72;3.45;;;;;;;15.72;51.93;100097.94;10532740;28;20130;-69
2023/04/16 13:03:01;;;;;;;4.45;2.90;;;;;;;15.74;53.73;100096.91;10532152;28;20130;-70
2023/04/16 13:08:03;;;;;;;5.47;3.33;;;;;;;15.50;54.49;100090.19;10529869;28;20067;-70
2023/04/16 13:13:05;;;;;;;4.05;3.75;;;;;;;15.63;52.70;100096.59;10531672;28;20048;-71
2023/04/16 13:18:07;;;;;;;3.70;3.50;;;;;;;15.34;52.71;100098.91;10512995;28;20120;-70
2023/04/16 13:23:09;;;;;;;2.78;2.58;;;;;;;15.41;50.65;100102.13;10512697;28;20416;-70
2023/04/16 13:28:10;;;;;;;3.03;2.78;;;;;;;15.05;50.80;100110.09;10531766;28;20456;-70
2023/04/16 13:33:12;;;;;;;3.60;3.35;;;;;;;14.93;54.06;100110.69;10531904;28;20040;-70
2023/04/16 13:38:15;;;;;;;4.60;4.25;;;;;;;14.84;55.20;100112.84;10512787;28;20047;-72
2023/04/16 13:43:17;;;;;;;4.63;4.25;;;;;;;14.79;57.75;100116.66;10531370;28;20108;-69
2023/04/16 13:48:19;;;;;;;6.00;5.53;;;;;;;14.69;60.51;100110.91;10512246;28;20054;-69
2023/04/16 13:53:21;;;;;;;5.85;5.45;;;;;;;14.59;60.94;100109.66;10530699;28;20066;-70
2023/04/16 13:58:23;;;;;;;5.28;4.93;;;;;;;14.08;63.61;100114.59;10516187;28;20492;-69
2023/04/16 14:03:25;;;;;;;5.28;4.88;;;;;;;14.16;63.92;100121.31;10520568;28;20508;-70
2023/04/16 14:08:27;;;;;;;4.82;4.40;;;;;;;14.19;66.73;100121.19;10539175;28;20393;-70
2023/04/16 14:13:29;;;;;;;4.85;4.55;;;;;;;14.10;68.50;100117.16;10539253;28;20406;-69
2023/04/16 14:18:31;;;;;;;4.90;4.50;;;;;;;14.26;67.96;100128.78;10520374;28;20060;-70
2023/04/16 14:23:32;;;;;;;4.72;4.43;;;;;;;14.14;67.63;100124.03;10538258;28;20482;-71
2023/04/16 14:28:34;;;;;;;4.63;3.92;;;;;;;14.29;66.66;100125.13;10537612;28;20047;-69
2023/04/16 14:33:36;;;;;;;3.85;3.55;;;;;;;14.50;68.44;100128.59;10537451;28;20054;-69
2023/04/16 14:38:39;;;;;;;3.90;3.60;;;;;;;14.10;70.53;100138.31;10538455;28;20040;-70
2023/04/16 14:43:40;;;;;;;4.05;3.63;;;;;;;13.85;73.06;100130.59;10537941;28;20046;-70
2023/04/16 14:48:43;;;;;;;3.42;3.20;;;;;;;13.56;76.12;100135.38;10538254;28;20447;-69
2023/04/16 14:53:44;;;;;;;4.07;3.78;;;;;;;13.68;76.93;100139.28;10518934;28;20126;-70
2023/04/16 14:58:46;;;;;;;3.72;3.40;;;;;;;13.56;76.37;100153.84;10537828;28;20044;-70
2023/04/16 15:03:48;;;;;;;3.35;3.15;;;;;;;13.27;79.39;100133.94;10537944;28;20156;-70
2023/04/16 15:08:50;;;;;;;3.33;3.05;;;;;;;13.24;80.65;100149.91;10536937;28;20058;-70
2023/04/16 15:13:52;;;;;;;2.80;2.60;;;;;;;13.46;79.50;100149.88;10537516;28;20098;-70
2023/04/16 15:18:53;;;;;;;2.58;2.38;;;;;;;13.18;81.54;100149.25;10537595;28;20123;-70
2023/04/16 15:23:55;;;;;;;2.65;2.45;;;;;;;13.38;79.75;100152.84;10538161;28;20051;-71
2023/04/16 15:28:57;;;;;;;2.70;2.50;;;;;;;13.21;79.97;100157.06;10536507;28;20064;-70
2023/04/16 15:33:59;;;;;;;2.40;2.20;;;;;;;13.24;77.93;100149.91;10519194;28;20060;-70
2023/04/16 15:39:01;;;;;;;2.22;2.13;;;;;;;13.25;78.78;100149.00;10536626;28;20036;-70
2023/04/16 15:44:02;;;;;;;3.17;2.50;;;;;;;12.82;80.77;100155.09;10536365;28;20047;-70
2023/04/16 15:49:04;;;;;;;2.55;2.35;;;;;;;12.87;80.21;100167.16;10501848;28;20095;-70
2023/04/16 15:54:07;;;;;;;2.00;1.90;;;;;;;12.74;82.17;100165.91;10537075;28;20193;-70
2023/04/16 15:59:09;;;;;;;2.58;2.22;;;;;;;12.52;83.34;100179.06;10518594;28;20397;-71
2023/04/16 16:04:11;;;;;;;2.45;2.25;;;;;;;12.63;84.27;100179.53;10535954;28;20472;-70
2023/04/16 16:09:13;;;;;;;2.47;2.28;;;;;;;12.53;86.21;100186.06;10537658;28;20535;-70
2023/04/16 16:14:15;;;;;;;3.00;2.80;;;;;;;12.56;84.79;100188.56;10536061;28;20080;-71
2023/04/16 16:19:19;;;;;;;2.90;2.70;;;;;;;12.24;86.21;100197.69;10516978;28;20036;-70
2023/04/16 16:24:21;;;;;;;2.80;2.50;;;;;;;12.12;87.42;100206.88;10534935;28;20123;-71
2023/04/16 16:29:24;;;;;;;3.88;3.58;;;;;;;11.89;88.62;100212.09;10515773;28;20055;-69
2023/04/16 16:34:25;;;;;;;3.60;3.30;;;;;;;11.92;89.97;100216.41;10516538;28;20081;-71
2023/04/16 16:39:27;;;;;;;4.95;4.55;;;;;;;11.80;94.51;100225.53;10510889;28;20072;-70
2023/04/16 16:44:29;;;;;;;5.00;4.60;;;;;;;11.73;96.31;100222.25;10510064;28;20068;-73
2023/04/16 16:49:31;;;;;;;3.53;3.28;;;;;;;11.42;96.91;100232.06;10495720;28;20043;-72
2023/04/16 16:54:33;;;;;;;3.28;2.97;;;;;;;11.34;97.83;100230.53;10532363;28;20153;-71
2023/04/16 16:59:35;;;;;;;3.17;2.97;;;;;;;11.26;98.05;100234.31;10549858;28;20054;-72
2023/04/16 17:04:36;;;;;;;2.90;2.70;;;;;;;11.08;99.47;100239.25;10574652;28;20436;-71
2023/04/16 17:09:38;;;;;;;3.55;3.25;;;;;;;11.07;100.00;100249.84;10574551;28;20043;-71
2023/04/16 17:14:40;;;;;;;4.30;4.00;;;;;;;10.93;100.00;100247.59;10574849;28;20065;-71
2023/04/16 17:19:51;;;;;;;4.93;4.63;;;;;;;11.06;100.00;100248.94;10573770;28;20067;-71
2023/04/16 17:24:53;;;;;;;5.30;4.93;;;;;;;10.95;100.00;100260.72;10555435;28;20087;-71
2023/04/16 17:29:58;;;;;;;6.60;6.10;;;;;;;10.68;100.00;100259.75;10530547;22;20044;-73
2023/04/16 17:35:02;;;;;;;8.52;7.93;;;;;;;10.82;100.00;100262.84;10491581;28;20511;-73
2023/04/16 17:40:06;;;;;;;9.63;8.93;;;;;;;10.48;100.00;100268.19;10487300;28;20064;-73
2023/04/16 17:45:09;;;;;;;11.82;10.98;;;;;;;10.41;100.00;100278.00;10506578;28;20047;-72
2023/04/16 17:50:11;;;;;;;14.13;13.15;;;;;;;10.47;100.00;100280.47;10502746;28;20064;-72
2023/04/16 17:55:12;;;;;;;16.92;15.63;;;;;;;10.29;100.00;100278.34;10491594;28;20385;-73
2023/04/16 18:00:15;;;;;;;17.92;16.63;;;;;;;10.11;100.00;100284.91;10484104;28;20113;-72
2023/04/16 18:05:17;;;;;;;20.80;19.30;;;;;;;10.13;100.00;100288.34;10514843;28;20047;-73
2023/04/16 18:10:19;;;;;;;20.92;19.38;;;;;;;10.19;100.00;100296.06;10531569;28;20454;-72
2023/04/16 18:15:21;;;;;;;21.90;20.17;;;;;;;10.18;100.00;100291.72;10532966;28;20036;-73
2023/04/16 18:20:23;;;;;;;22.95;20.80;;;;;;;10.05;100.00;100306.09;10533419;28;20525;-73
2023/04/16 18:25:24;;;;;;;22.75;21.15;;;;;;;10.08;100.00;100303.34;10530791;28;20040;-73
2023/04/16 18:30:35;;;;;;;20.30;18.85;;;;;;;9.94;100.00;100311.59;10532364;28;20083;-74
2023/04/16 18:35:41;;;;;;;18.42;17.13;;;;;;;10.06;100.00;100319.16;10514990;28;20136;-74
2023/04/16 18:40:43;;;;;;;16.42;15.23;;;;;;;10.05;100.00;100327.09;10531654;28;20173;-74
2023/04/16 18:45:44;;;;;;;15.35;14.25;;;;;;;9.79;100.00;100327.72;10541793;28;20111;-73
2023/04/16 18:50:46;;;;;;;14.30;13.10;;;;;;;9.90;100.00;100330.06;10539010;28;20043;-74
2023/04/16 18:55:52;;;;;;;12.60;11.70;;;;;;;10.00;100.00;100328.94;10522716;28;20044;-74
2023/04/16 19:00:57;;;;;;;9.50;8.80;;;;;;;9.97;100.00;100329.91;10519496;28;20116;-73
2023/04/16 19:06:02;;;;;;;9.20;8.60;;;;;;;9.91;100.00;100337.06;10542457;28;20090;-74
2023/04/16 19:11:03;;;;;;;8.77;8.18;;;;;;;9.85;100.00;100332.81;10538183;28;20050;-75
2023/04/16 19:16:09;;;;;;;10.02;9.35;;;;;;;9.68;100.00;100340.22;10519704;28;20044;-73
2023/04/16 19:21:11;;;;;;;8.45;7.72;;;;;;;9.65;100.00;100340.28;10541182;28;20167;-73
2023/04/16 19:26:14;;;;;;;7.68;7.18;;;;;;;9.59;100.00;100338.66;10538390;28;20047;-73
2023/04/16 19:31:16;;;;;;;7.65;7.15;;;;;;;9.54;100.00;100338.78;10540037;28;20389;-73
2023/04/16 19:36:17;;;;;;;9.80;9.02;;;;;;;9.45;100.00;100349.47;10537220;28;20525;-73
2023/04/16 19:41:19;;;;;;;10.57;9.73;;;;;;;9.54;100.00;100344.03;10540734;28;20465;-72
2023/04/16 19:46:21;;;;;;;10.43;9.73;;;;;;;9.52;100.00;100348.47;10536500;28;20109;-73
2023/04/16 19:51:23;;;;;;;9.40;8.80;;;;;;;9.53;100.00;100350.19;10540175;28;20040;-73
2023/04/16 19:56:25;;;;;;;9.70;9.05;;;;;;;9.56;100.00;100351.84;10534600;28;20124;-73
2023/04/16 20:01:27;;;;;;;9.25;8.63;;;;;;;9.57;100.00;100351.84;10518096;28;20040;-73
2023/04/16 20:06:28;;;;;;;8.68;8.07;;;;;;;9.70;100.00;100356.81;10540082;28;20044;-72
2023/04/16 20:11:30;;;;;;;8.02;7.43;;;;;;;9.76;100.00;100364.53;10543289;28;20100;-72
2023/04/16 20:16:32;;;;;;;7.82;7.32;;;;;;;9.66;100.00;100363.03;10538209;28;20044;-73
2023/04/16 20:21:34;;;;;;;7.40;6.90;;;;;;;9.75;100.00;100358.44;10515178;28;20107;-72
2023/04/16 20:26:36;;;;;;;7.50;6.90;;;;;;;9.64;100.00;100359.56;10515654;28;20048;-72
2023/04/16 20:31:40;;;;;;;7.70;7.20;;;;;;;9.48;100.00;100357.31;10514751;28;20095;-73
2023/04/16 20:36:41;;;;;;;7.82;7.15;;;;;;;9.53;100.00;100355.44;10535903;28;20110;-73
2023/04/16 20:41:45;;;;;;;8.18;7.68;;;;;;;9.48;100.00;100361.69;10515671;28;20044;-72
2023/04/16 20:46:49;;;;;;;9.13;8.45;;;;;;;9.56;100.00;100360.63;10522528;28;20050;-73
2023/04/16 20:51:51;;;;;;;9.52;8.85;;;;;;;9.45;100.00;100359.97;10536877;28;20396;-72
2023/04/16 20:56:53;;;;;;;9.77;9.07;;;;;;;9.45;100.00;100367.84;10534947;28;20115;-72
2023/04/16 21:01:57;;;;;;;9.70;9.00;;;;;;;9.43;100.00;100367.03;10533736;28;20040;-71
2023/04/16 21:07:02;;;;;;;9.77;9.18;;;;;;;9.42;100.00;100367.91;10530972;28;20050;-72
2023/04/16 21:12:03;;;;;;;10.25;9.43;;;;;;;9.43;100.00;100371.41;10517121;28;20062;-73
2023/04/16 21:17:05;;;;;;;10.35;9.68;;;;;;;9.32;100.00;100367.25;10535003;28;20095;-72
2023/04/16 21:22:07;;;;;;;10.80;10.10;;;;;;;9.30;100.00;100370.81;10534422;28;20108;-72
2023/04/16 21:27:08;;;;;;;10.02;9.38;;;;;;;9.38;100.00;100368.88;10530984;28;20040;-73
2023/04/16 21:32:10;;;;;;;10.73;10.02;;;;;;;9.33;100.00;100373.34;10501837;28;20102;-72
2023/04/16 21:37:12;;;;;;;10.13;9.52;;;;;;;9.26;100.00;100374.41;10531060;28;20088;-72
2023/04/16 21:42:14;;;;;;;11.20;10.55;;;;;;;9.33;100.00;100376.84;10518156;28;20241;-73
2023/04/16 21:47:15;;;;;;;10.82;10.13;;;;;;;9.30;100.00;100376.94;10519132;28;20040;-74
2023/04/16 21:52:17;;;;;;;12.73;11.90;;;;;;;9.23;100.00;100374.44;10535556;28;20131;-72
2023/04/16 21:57:19;;;;;;;12.20;11.40;;;;;;;9.18;100.00;100374.56;10530918;28;20516;-72
2023/04/16 22:02:21;;;;;;;12.50;11.65;;;;;;;9.18;100.00;100381.56;10533192;28;20431;-72
2023/04/16 22:07:26;;;;;;;13.15;12.07;;;;;;;9.03;100.00;100380.97;10515423;28;20058;-72
2023/04/16 22:12:27;;;;;;;12.80;12.00;;;;;;;9.19;100.00;100375.41;10534273;28;20488;-72
2023/04/16 22:17:30;;;;;;;13.50;12.50;;;;;;;9.12;100.00;100377.31;10533065;28;20044;-74
2023/04/16 22:22:37;;;;;;;13.95;13.05;;;;;;;9.08;100.00;100379.13;10538780;28;20032;-73
2023/04/16 22:27:55;;;;;;;13.55;12.60;;;;;;;9.12;100.00;100379.03;10521996;28;20119;-73
2023/04/16 22:32:56;;;;;;;14.75;13.75;;;;;;;9.29;100.00;100377.78;10541084;28;20040;-73
2023/04/16 22:37:58;;;;;;;14.65;13.70;;;;;;;9.18;100.00;100379.78;10538405;28;20089;-73
2023/04/16 22:43:00;;;;;;;16.45;15.35;;;;;;;9.13;100.00;100383.41;10537978;28;20028;-73
2023/04/16 22:48:02;;;;;;;16.45;15.45;;;;;;;8.96;100.00;100375.88;10538066;28;20512;-73
2023/04/16 22:53:03;;;;;;;16.70;15.60;;;;;;;9.01;100.00;100379.28;10536578;28;20139;-72
2023/04/16 22:58:05;;;;;;;15.13;14.23;;;;;;;8.97;100.00;100378.47;10537086;28;20051;-74
2023/04/16 23:03:07;;;;;;;14.85;13.95;;;;;;;9.11;100.00;100375.56;10536878;28;20044;-72